ěÝzenÝ letovÚho provozu ╚eskÚ republiky
Letiste: LKMT Aktualizace: 07.04.2020 05:06:26  UTC
 METAR LKMT 07.04. 05:00 ...
METAR LKMT 070500Z 00000KT CAVOK 04/M03 Q1032 NOSIG RMK REG QNH 1026=
 TAF LKMT 07.04. 05:00 ...
TAF LKMT 070500Z 0706/0812 21008KT CAVOK      TEMPO 0709/0716 23014G24KT=